sensor_id;sensor_type;location;lat;lon;timestamp;temperature;humidity
17039;DHT22;8636;55.750;13.202;2023-06-22T00:00:44;15.50;99.90
17039;DHT22;8636;55.750;13.202;2023-06-22T00:03:13;15.40;99.90
17039;DHT22;8636;55.750;13.202;2023-06-22T00:05:48;15.40;99.90
17039;DHT22;8636;55.750;13.202;2023-06-22T00:08:17;15.40;99.90
17039;DHT22;8636;55.750;13.202;2023-06-22T00:10:46;15.40;99.90
17039;DHT22;8636;55.750;13.202;2023-06-22T00:13:21;15.40;99.90
17039;DHT22;8636;55.750;13.202;2023-06-22T00:15:49;15.40;99.90
17039;DHT22;8636;55.750;13.202;2023-06-22T00:18:18;15.50;99.90
17039;DHT22;8636;55.750;13.202;2023-06-22T00:20:53;15.40;99.90
17039;DHT22;8636;55.750;13.202;2023-06-22T00:23:24;15.50;99.90
17039;DHT22;8636;55.750;13.202;2023-06-22T00:25:52;15.40;99.90
17039;DHT22;8636;55.750;13.202;2023-06-22T00:28:27;15.40;99.90
17039;DHT22;8636;55.750;13.202;2023-06-22T00:30:55;15.40;99.90
17039;DHT22;8636;55.750;13.202;2023-06-22T00:33:25;15.40;99.90
17039;DHT22;8636;55.750;13.202;2023-06-22T00:35:59;15.40;99.90
17039;DHT22;8636;55.750;13.202;2023-06-22T00:38:27;15.40;99.90
17039;DHT22;8636;55.750;13.202;2023-06-22T00:40:55;15.40;99.90
17039;DHT22;8636;55.750;13.202;2023-06-22T00:43:29;15.40;99.90
17039;DHT22;8636;55.750;13.202;2023-06-22T00:46:04;15.30;99.90
17039;DHT22;8636;55.750;13.202;2023-06-22T00:48:40;15.40;99.90
17039;DHT22;8636;55.750;13.202;2023-06-22T00:51:10;15.30;99.90
17039;DHT22;8636;55.750;13.202;2023-06-22T00:53:45;15.30;99.90
17039;DHT22;8636;55.750;13.202;2023-06-22T00:56:13;15.20;99.90
17039;DHT22;8636;55.750;13.202;2023-06-22T00:58:41;15.20;99.90
17039;DHT22;8636;55.750;13.202;2023-06-22T01:01:15;15.30;99.90
17039;DHT22;8636;55.750;13.202;2023-06-22T01:03:44;15.20;99.90
17039;DHT22;8636;55.750;13.202;2023-06-22T01:06:18;15.20;99.90
17039;DHT22;8636;55.750;13.202;2023-06-22T01:09:00;15.20;99.90
17039;DHT22;8636;55.750;13.202;2023-06-22T01:11:37;15.20;99.90
17039;DHT22;8636;55.750;13.202;2023-06-22T01:14:20;15.30;99.90
17039;DHT22;8636;55.750;13.202;2023-06-22T01:16:49;15.20;99.90
17039;DHT22;8636;55.750;13.202;2023-06-22T01:19:36;15.20;99.90
17039;DHT22;8636;55.750;13.202;2023-06-22T01:22:06;15.20;99.90
17039;DHT22;8636;55.750;13.202;2023-06-22T01:24:53;15.20;99.90
17039;DHT22;8636;55.750;13.202;2023-06-22T01:27:32;15.20;99.90
17039;DHT22;8636;55.750;13.202;2023-06-22T01:30:10;15.20;99.90
17039;DHT22;8636;55.750;13.202;2023-06-22T01:32:40;15.20;99.90
17039;DHT22;8636;55.750;13.202;2023-06-22T01:35:15;15.20;99.90
17039;DHT22;8636;55.750;13.202;2023-06-22T01:37:44;15.20;99.90
17039;DHT22;8636;55.750;13.202;2023-06-22T01:40:12;15.20;99.90
17039;DHT22;8636;55.750;13.202;2023-06-22T01:42:54;15.20;99.90
17039;DHT22;8636;55.750;13.202;2023-06-22T01:45:24;15.20;99.90
17039;DHT22;8636;55.750;13.202;2023-06-22T01:48:00;15.20;99.90
17039;DHT22;8636;55.750;13.202;2023-06-22T01:50:28;15.20;99.90
17039;DHT22;8636;55.750;13.202;2023-06-22T01:52:57;15.10;99.90
17039;DHT22;8636;55.750;13.202;2023-06-22T01:55:32;15.10;99.90
17039;DHT22;8636;55.750;13.202;2023-06-22T01:58:00;15.10;99.90
17039;DHT22;8636;55.750;13.202;2023-06-22T02:00:32;15.10;99.90
17039;DHT22;8636;55.750;13.202;2023-06-22T02:03:11;15.20;99.90
17039;DHT22;8636;55.750;13.202;2023-06-22T02:05:46;15.20;99.90
17039;DHT22;8636;55.750;13.202;2023-06-22T02:08:23;15.20;99.90
17039;DHT22;8636;55.750;13.202;2023-06-22T02:10:52;15.20;99.90
17039;DHT22;8636;55.750;13.202;2023-06-22T02:13:24;15.20;99.90
17039;DHT22;8636;55.750;13.202;2023-06-22T02:16:01;15.20;99.90
17039;DHT22;8636;55.750;13.202;2023-06-22T02:18:29;15.20;99.90
17039;DHT22;8636;55.750;13.202;2023-06-22T02:20:57;15.20;99.90
17039;DHT22;8636;55.750;13.202;2023-06-22T02:23:32;15.20;99.90
17039;DHT22;8636;55.750;13.202;2023-06-22T02:26:03;15.20;99.90
17039;DHT22;8636;55.750;13.202;2023-06-22T02:28:31;15.20;99.90
17039;DHT22;8636;55.750;13.202;2023-06-22T02:31:07;15.20;99.90
17039;DHT22;8636;55.750;13.202;2023-06-22T02:33:35;15.20;99.90
17039;DHT22;8636;55.750;13.202;2023-06-22T02:36:03;15.20;99.90
17039;DHT22;8636;55.750;13.202;2023-06-22T02:38:38;15.10;99.90
17039;DHT22;8636;55.750;13.202;2023-06-22T02:41:06;15.10;99.90
17039;DHT22;8636;55.750;13.202;2023-06-22T02:43:48;15.10;99.90
17039;DHT22;8636;55.750;13.202;2023-06-22T02:46:17;15.10;99.90
17039;DHT22;8636;55.750;13.202;2023-06-22T02:48:45;15.20;99.90
17039;DHT22;8636;55.750;13.202;2023-06-22T02:51:20;15.20;99.90
17039;DHT22;8636;55.750;13.202;2023-06-22T02:53:48;15.20;99.90
17039;DHT22;8636;55.750;13.202;2023-06-22T02:56:18;15.20;99.90
17039;DHT22;8636;55.750;13.202;2023-06-22T02:58:58;15.20;99.90
17039;DHT22;8636;55.750;13.202;2023-06-22T03:01:29;15.20;99.90
17039;DHT22;8636;55.750;13.202;2023-06-22T03:04:11;15.20;99.90
17039;DHT22;8636;55.750;13.202;2023-06-22T03:06:39;15.30;99.90
17039;DHT22;8636;55.750;13.202;2023-06-22T03:09:07;15.30;99.90
17039;DHT22;8636;55.750;13.202;2023-06-22T03:11:42;15.30;99.90
17039;DHT22;8636;55.750;13.202;2023-06-22T03:14:10;15.40;99.90
17039;DHT22;8636;55.750;13.202;2023-06-22T03:16:39;15.50;99.90
17039;DHT22;8636;55.750;13.202;2023-06-22T03:19:14;15.50;99.90
17039;DHT22;8636;55.750;13.202;2023-06-22T03:21:42;15.60;99.90
17039;DHT22;8636;55.750;13.202;2023-06-22T03:24:09;15.60;99.90
17039;DHT22;8636;55.750;13.202;2023-06-22T03:26:44;16.80;99.90
17039;DHT22;8636;55.750;13.202;2023-06-22T03:29:13;17.40;99.90
17039;DHT22;8636;55.750;13.202;2023-06-22T03:31:42;17.20;99.90
17039;DHT22;8636;55.750;13.202;2023-06-22T03:34:17;16.90;99.90
17039;DHT22;8636;55.750;13.202;2023-06-22T03:36:45;16.70;99.90
17039;DHT22;8636;55.750;13.202;2023-06-22T03:39:13;16.50;99.90
17039;DHT22;8636;55.750;13.202;2023-06-22T03:41:55;16.40;99.90
17039;DHT22;8636;55.750;13.202;2023-06-22T03:44:23;16.30;99.90
17039;DHT22;8636;55.750;13.202;2023-06-22T03:46:58;16.30;99.90
17039;DHT22;8636;55.750;13.202;2023-06-22T03:49:26;16.30;99.90
17039;DHT22;8636;55.750;13.202;2023-06-22T03:51:54;16.30;99.90
17039;DHT22;8636;55.750;13.202;2023-06-22T03:54:29;16.30;99.90
17039;DHT22;8636;55.750;13.202;2023-06-22T03:56:58;16.30;99.90
17039;DHT22;8636;55.750;13.202;2023-06-22T03:59:26;16.30;99.90
17039;DHT22;8636;55.750;13.202;2023-06-22T04:02:01;16.30;99.90
17039;DHT22;8636;55.750;13.202;2023-06-22T04:04:36;16.40;99.90
17039;DHT22;8636;55.750;13.202;2023-06-22T04:07:12;16.40;99.90
17039;DHT22;8636;55.750;13.202;2023-06-22T04:09:40;16.50;99.90
17039;DHT22;8636;55.750;13.202;2023-06-22T04:12:09;16.50;99.90
17039;DHT22;8636;55.750;13.202;2023-06-22T04:14:44;16.60;99.90
17039;DHT22;8636;55.750;13.202;2023-06-22T04:17:13;16.60;99.90
17039;DHT22;8636;55.750;13.202;2023-06-22T04:19:41;16.70;99.90
17039;DHT22;8636;55.750;13.202;2023-06-22T04:22:16;17.10;99.90
17039;DHT22;8636;55.750;13.202;2023-06-22T04:24:44;17.00;99.90
17039;DHT22;8636;55.750;13.202;2023-06-22T04:27:12;16.90;99.90
17039;DHT22;8636;55.750;13.202;2023-06-22T04:29:46;17.00;99.90
17039;DHT22;8636;55.750;13.202;2023-06-22T04:32:19;17.20;99.90
17039;DHT22;8636;55.750;13.202;2023-06-22T04:34:54;17.10;99.90
17039;DHT22;8636;55.750;13.202;2023-06-22T04:37:22;17.20;99.90
17039;DHT22;8636;55.750;13.202;2023-06-22T04:39:51;17.40;99.90
17039;DHT22;8636;55.750;13.202;2023-06-22T04:42:34;17.60;99.90
17039;DHT22;8636;55.750;13.202;2023-06-22T04:45:03;18.30;99.90
17039;DHT22;8636;55.750;13.202;2023-06-22T04:47:39;18.30;99.90
17039;DHT22;8636;55.750;13.202;2023-06-22T04:50:07;18.60;99.90
17039;DHT22;8636;55.750;13.202;2023-06-22T04:52:35;19.10;99.90
17039;DHT22;8636;55.750;13.202;2023-06-22T04:55:10;20.90;99.90
17039;DHT22;8636;55.750;13.202;2023-06-22T04:57:41;20.80;99.90
17039;DHT22;8636;55.750;13.202;2023-06-22T05:00:22;20.30;99.90
17039;DHT22;8636;55.750;13.202;2023-06-22T05:02:52;21.10;99.90
17039;DHT22;8636;55.750;13.202;2023-06-22T05:05:32;22.30;99.90
17039;DHT22;8636;55.750;13.202;2023-06-22T05:08:07;23.50;99.90
17039;DHT22;8636;55.750;13.202;2023-06-22T05:10:35;25.10;99.90
17039;DHT22;8636;55.750;13.202;2023-06-22T05:13:25;23.60;99.90
17039;DHT22;8636;55.750;13.202;2023-06-22T05:15:59;24.50;99.90
17039;DHT22;8636;55.750;13.202;2023-06-22T05:18:31;24.50;99.90
17039;DHT22;8636;55.750;13.202;2023-06-22T05:21:06;22.10;99.90
17039;DHT22;8636;55.750;13.202;2023-06-22T05:23:34;21.40;99.90
17039;DHT22;8636;55.750;13.202;2023-06-22T05:26:02;20.70;99.90
17039;DHT22;8636;55.750;13.202;2023-06-22T05:28:37;20.20;99.90
17039;DHT22;8636;55.750;13.202;2023-06-22T05:31:05;20.00;99.90
17039;DHT22;8636;55.750;13.202;2023-06-22T05:33:34;19.80;99.90
17039;DHT22;8636;55.750;13.202;2023-06-22T05:36:10;19.60;99.90
17039;DHT22;8636;55.750;13.202;2023-06-22T05:38:39;19.50;99.90
17039;DHT22;8636;55.750;13.202;2023-06-22T05:41:07;19.30;99.90
17039;DHT22;8636;55.750;13.202;2023-06-22T05:43:42;19.20;99.90
17039;DHT22;8636;55.750;13.202;2023-06-22T05:46:18;19.20;99.90
17039;DHT22;8636;55.750;13.202;2023-06-22T05:48:54;19.20;99.90
17039;DHT22;8636;55.750;13.202;2023-06-22T05:51:22;19.40;99.90
17039;DHT22;8636;55.750;13.202;2023-06-22T05:53:50;19.30;99.90
17039;DHT22;8636;55.750;13.202;2023-06-22T05:56:24;19.60;99.90
17039;DHT22;8636;55.750;13.202;2023-06-22T05:58:52;19.60;99.90
17039;DHT22;8636;55.750;13.202;2023-06-22T06:01:20;19.80;99.90
17039;DHT22;8636;55.750;13.202;2023-06-22T06:03:55;19.70;99.90
17039;DHT22;8636;55.750;13.202;2023-06-22T06:06:23;20.00;99.90
17039;DHT22;8636;55.750;13.202;2023-06-22T06:09:02;20.50;99.90
17039;DHT22;8636;55.750;13.202;2023-06-22T06:11:30;20.60;99.90
17039;DHT22;8636;55.750;13.202;2023-06-22T06:13:58;20.30;99.90
17039;DHT22;8636;55.750;13.202;2023-06-22T06:16:33;20.10;99.90
17039;DHT22;8636;55.750;13.202;2023-06-22T06:19:02;20.30;99.90
17039;DHT22;8636;55.750;13.202;2023-06-22T06:21:30;20.80;99.90
17039;DHT22;8636;55.750;13.202;2023-06-22T06:24:05;21.10;99.90
17039;DHT22;8636;55.750;13.202;2023-06-22T06:26:33;21.40;99.90
17039;DHT22;8636;55.750;13.202;2023-06-22T06:29:02;21.50;99.90
17039;DHT22;8636;55.750;13.202;2023-06-22T06:31:36;21.60;99.90
17039;DHT22;8636;55.750;13.202;2023-06-22T06:34:05;21.80;99.90
17039;DHT22;8636;55.750;13.202;2023-06-22T06:36:33;21.60;99.90
17039;DHT22;8636;55.750;13.202;2023-06-22T06:39:08;21.30;99.90
17039;DHT22;8636;55.750;13.202;2023-06-22T06:41:43;21.40;99.90
17039;DHT22;8636;55.750;13.202;2023-06-22T06:44:17;21.30;99.90
17039;DHT22;8636;55.750;13.202;2023-06-22T06:46:45;21.60;99.90
17039;DHT22;8636;55.750;13.202;2023-06-22T06:49:14;21.20;99.90
17039;DHT22;8636;55.750;13.202;2023-06-22T06:51:49;22.00;99.90
17039;DHT22;8636;55.750;13.202;2023-06-22T06:54:17;21.70;99.90
17039;DHT22;8636;55.750;13.202;2023-06-22T06:56:47;21.50;99.90
17039;DHT22;8636;55.750;13.202;2023-06-22T06:59:22;21.90;99.90
17039;DHT22;8636;55.750;13.202;2023-06-22T07:01:50;21.60;99.90
17039;DHT22;8636;55.750;13.202;2023-06-22T07:04:19;21.70;99.90
17039;DHT22;8636;55.750;13.202;2023-06-22T07:06:54;21.80;99.90
17039;DHT22;8636;55.750;13.202;2023-06-22T07:09:22;22.10;99.90
17039;DHT22;8636;55.750;13.202;2023-06-22T07:11:50;21.90;99.90
17039;DHT22;8636;55.750;13.202;2023-06-22T07:14:24;21.70;99.90
17039;DHT22;8636;55.750;13.202;2023-06-22T07:16:52;21.40;99.90
17039;DHT22;8636;55.750;13.202;2023-06-22T07:19:26;21.60;99.90
17039;DHT22;8636;55.750;13.202;2023-06-22T07:22:00;21.60;99.90
17039;DHT22;8636;55.750;13.202;2023-06-22T07:24:28;21.30;99.90
17039;DHT22;8636;55.750;13.202;2023-06-22T07:26:56;21.40;99.90
17039;DHT22;8636;55.750;13.202;2023-06-22T07:29:30;21.70;99.90
17039;DHT22;8636;55.750;13.202;2023-06-22T07:31:58;22.00;99.90
17039;DHT22;8636;55.750;13.202;2023-06-22T07:34:28;21.40;99.90
17039;DHT22;8636;55.750;13.202;2023-06-22T07:37:04;21.30;99.90
17039;DHT22;8636;55.750;13.202;2023-06-22T07:39:32;21.40;99.90
17039;DHT22;8636;55.750;13.202;2023-06-22T07:42:00;21.40;99.90
17039;DHT22;8636;55.750;13.202;2023-06-22T07:44:34;21.80;99.90
17039;DHT22;8636;55.750;13.202;2023-06-22T07:47:02;21.50;99.90
17039;DHT22;8636;55.750;13.202;2023-06-22T07:49:32;21.60;99.90
17039;DHT22;8636;55.750;13.202;2023-06-22T07:52:08;21.80;99.90
17039;DHT22;8636;55.750;13.202;2023-06-22T07:54:38;21.90;99.90
17039;DHT22;8636;55.750;13.202;2023-06-22T07:57:07;22.10;99.90
17039;DHT22;8636;55.750;13.202;2023-06-22T07:59:43;22.20;99.90
17039;DHT22;8636;55.750;13.202;2023-06-22T08:02:11;21.90;99.90
17039;DHT22;8636;55.750;13.202;2023-06-22T08:04:41;21.80;99.90
17039;DHT22;8636;55.750;13.202;2023-06-22T08:07:16;22.00;99.90
17039;DHT22;8636;55.750;13.202;2023-06-22T08:09:48;22.00;99.90
17039;DHT22;8636;55.750;13.202;2023-06-22T08:12:23;22.50;99.90
17039;DHT22;8636;55.750;13.202;2023-06-22T08:14:51;22.20;99.90
17039;DHT22;8636;55.750;13.202;2023-06-22T08:17:19;22.10;99.90
17039;DHT22;8636;55.750;13.202;2023-06-22T08:19:55;21.90;99.90
17039;DHT22;8636;55.750;13.202;2023-06-22T08:22:22;22.10;99.90
17039;DHT22;8636;55.750;13.202;2023-06-22T08:24:50;22.40;99.90
17039;DHT22;8636;55.750;13.202;2023-06-22T08:27:25;22.20;99.90
17039;DHT22;8636;55.750;13.202;2023-06-22T08:29:55;22.40;99.90
17039;DHT22;8636;55.750;13.202;2023-06-22T08:32:32;22.50;99.90
17039;DHT22;8636;55.750;13.202;2023-06-22T08:35:02;22.70;99.90
17039;DHT22;8636;55.750;13.202;2023-06-22T08:37:30;22.50;99.90
17039;DHT22;8636;55.750;13.202;2023-06-22T08:40:06;22.80;99.90
17039;DHT22;8636;55.750;13.202;2023-06-22T08:42:36;22.60;99.90
17039;DHT22;8636;55.750;13.202;2023-06-22T08:45:18;22.70;99.90
17039;DHT22;8636;55.750;13.202;2023-06-22T08:47:46;22.70;99.90
17039;DHT22;8636;55.750;13.202;2023-06-22T08:50:15;22.70;99.90
17039;DHT22;8636;55.750;13.202;2023-06-22T08:52:50;22.50;99.90
17039;DHT22;8636;55.750;13.202;2023-06-22T08:55:18;22.90;99.90
17039;DHT22;8636;55.750;13.202;2023-06-22T08:57:46;23.10;99.90
17039;DHT22;8636;55.750;13.202;2023-06-22T09:00:24;23.10;99.90
17039;DHT22;8636;55.750;13.202;2023-06-22T09:02:52;23.10;99.90
17039;DHT22;8636;55.750;13.202;2023-06-22T09:05:21;23.10;99.90
17039;DHT22;8636;55.750;13.202;2023-06-22T09:07:57;23.20;99.90
17039;DHT22;8636;55.750;13.202;2023-06-22T09:10:25;23.60;99.90
17039;DHT22;8636;55.750;13.202;2023-06-22T09:12:53;23.70;99.90
17039;DHT22;8636;55.750;13.202;2023-06-22T09:15:28;23.70;99.90
17039;DHT22;8636;55.750;13.202;2023-06-22T09:17:56;23.10;99.90
17039;DHT22;8636;55.750;13.202;2023-06-22T09:20:26;23.00;99.90
17039;DHT22;8636;55.750;13.202;2023-06-22T09:23:00;22.90;99.90
17039;DHT22;8636;55.750;13.202;2023-06-22T09:25:28;23.30;99.90
17039;DHT22;8636;55.750;13.202;2023-06-22T09:27:56;23.80;99.90
17039;DHT22;8636;55.750;13.202;2023-06-22T09:30:31;23.60;99.90
17039;DHT22;8636;55.750;13.202;2023-06-22T09:32:59;23.60;99.90
17039;DHT22;8636;55.750;13.202;2023-06-22T09:35:29;23.40;99.90
17039;DHT22;8636;55.750;13.202;2023-06-22T09:38:04;23.90;99.90
17039;DHT22;8636;55.750;13.202;2023-06-22T09:40:39;24.20;99.90
17039;DHT22;8636;55.750;13.202;2023-06-22T09:43:20;24.50;99.90
17039;DHT22;8636;55.750;13.202;2023-06-22T09:45:48;24.60;99.90
17039;DHT22;8636;55.750;13.202;2023-06-22T09:48:15;24.50;99.90
17039;DHT22;8636;55.750;13.202;2023-06-22T09:50:58;24.50;99.90
17039;DHT22;8636;55.750;13.202;2023-06-22T09:53:26;23.80;99.90
17039;DHT22;8636;55.750;13.202;2023-06-22T09:56:01;23.60;99.90
17039;DHT22;8636;55.750;13.202;2023-06-22T09:58:29;23.50;99.90
17039;DHT22;8636;55.750;13.202;2023-06-22T10:00:57;23.80;99.90
17039;DHT22;8636;55.750;13.202;2023-06-22T10:03:32;24.20;99.90
17039;DHT22;8636;55.750;13.202;2023-06-22T10:06:01;24.40;99.90
17039;DHT22;8636;55.750;13.202;2023-06-22T10:08:29;24.00;99.90
17039;DHT22;8636;55.750;13.202;2023-06-22T10:11:04;24.20;99.90
17039;DHT22;8636;55.750;13.202;2023-06-22T10:13:32;24.00;99.90
17039;DHT22;8636;55.750;13.202;2023-06-22T10:16:00;23.60;99.90
17039;DHT22;8636;55.750;13.202;2023-06-22T10:18:34;23.40;99.90
17039;DHT22;8636;55.750;13.202;2023-06-22T10:21:03;23.40;99.90
17039;DHT22;8636;55.750;13.202;2023-06-22T10:23:31;23.80;99.90
17039;DHT22;8636;55.750;13.202;2023-06-22T10:26:06;24.00;99.90
17039;DHT22;8636;55.750;13.202;2023-06-22T10:28:34;24.40;99.90
17039;DHT22;8636;55.750;13.202;2023-06-22T10:31:02;24.40;99.90
17039;DHT22;8636;55.750;13.202;2023-06-22T10:33:36;24.20;99.90
17039;DHT22;8636;55.750;13.202;2023-06-22T10:36:13;24.10;99.90
17039;DHT22;8636;55.750;13.202;2023-06-22T10:39:01;24.30;99.90
17039;DHT22;8636;55.750;13.202;2023-06-22T10:41:29;24.10;99.90
17039;DHT22;8636;55.750;13.202;2023-06-22T10:44:11;24.60;99.90
17039;DHT22;8636;55.750;13.202;2023-06-22T10:46:40;24.90;99.90
17039;DHT22;8636;55.750;13.202;2023-06-22T10:49:08;24.60;99.90
17039;DHT22;8636;55.750;13.202;2023-06-22T10:51:43;24.40;99.90
17039;DHT22;8636;55.750;13.202;2023-06-22T10:54:12;24.50;99.90
17039;DHT22;8636;55.750;13.202;2023-06-22T10:56:40;24.40;99.90
17039;DHT22;8636;55.750;13.202;2023-06-22T10:59:14;23.90;99.90
17039;DHT22;8636;55.750;13.202;2023-06-22T11:01:42;23.60;99.90
17039;DHT22;8636;55.750;13.202;2023-06-22T11:04:10;24.00;99.90
17039;DHT22;8636;55.750;13.202;2023-06-22T11:06:48;24.30;99.90
17039;DHT22;8636;55.750;13.202;2023-06-22T11:09:16;24.50;99.90
17039;DHT22;8636;55.750;13.202;2023-06-22T11:11:56;25.10;99.90
17039;DHT22;8636;55.750;13.202;2023-06-22T11:14:26;25.00;99.90
17039;DHT22;8636;55.750;13.202;2023-06-22T11:17:00;24.80;99.90
17039;DHT22;8636;55.750;13.202;2023-06-22T11:19:28;24.60;99.90
17039;DHT22;8636;55.750;13.202;2023-06-22T11:21:57;24.80;99.90
17039;DHT22;8636;55.750;13.202;2023-06-22T11:24:32;24.70;99.90
17039;DHT22;8636;55.750;13.202;2023-06-22T11:27:00;24.40;99.90
17039;DHT22;8636;55.750;13.202;2023-06-22T11:29:28;24.50;99.90
17039;DHT22;8636;55.750;13.202;2023-06-22T11:32:05;24.70;99.90
17039;DHT22;8636;55.750;13.202;2023-06-22T11:34:33;24.50;99.90
17039;DHT22;8636;55.750;13.202;2023-06-22T11:37:03;24.80;99.90
17039;DHT22;8636;55.750;13.202;2023-06-22T11:39:38;24.70;99.90
17039;DHT22;8636;55.750;13.202;2023-06-22T11:42:20;25.00;99.90
17039;DHT22;8636;55.750;13.202;2023-06-22T11:44:56;24.80;99.90
17039;DHT22;8636;55.750;13.202;2023-06-22T11:47:31;24.80;99.90
17039;DHT22;8636;55.750;13.202;2023-06-22T11:50:07;25.10;99.90
17039;DHT22;8636;55.750;13.202;2023-06-22T11:52:36;25.10;99.90
17039;DHT22;8636;55.750;13.202;2023-06-22T11:55:05;25.00;99.90
17039;DHT22;8636;55.750;13.202;2023-06-22T11:57:54;24.80;99.90
17039;DHT22;8636;55.750;13.202;2023-06-22T12:00:22;24.70;99.90
17039;DHT22;8636;55.750;13.202;2023-06-22T12:03:11;25.10;99.90
17039;DHT22;8636;55.750;13.202;2023-06-22T12:05:41;25.20;99.90
17039;DHT22;8636;55.750;13.202;2023-06-22T12:08:18;24.80;99.90
17039;DHT22;8636;55.750;13.202;2023-06-22T12:10:46;24.80;99.90
17039;DHT22;8636;55.750;13.202;2023-06-22T12:13:15;25.10;99.90
17039;DHT22;8636;55.750;13.202;2023-06-22T12:15:49;25.10;99.90
17039;DHT22;8636;55.750;13.202;2023-06-22T12:18:18;25.20;99.90
17039;DHT22;8636;55.750;13.202;2023-06-22T12:20:48;25.40;99.90
17039;DHT22;8636;55.750;13.202;2023-06-22T12:23:23;25.40;99.90
17039;DHT22;8636;55.750;13.202;2023-06-22T12:25:51;25.60;99.90
17039;DHT22;8636;55.750;13.202;2023-06-22T12:28:19;25.40;99.90
17039;DHT22;8636;55.750;13.202;2023-06-22T12:30:53;25.60;99.90
17039;DHT22;8636;55.750;13.202;2023-06-22T12:33:21;26.00;99.90
17039;DHT22;8636;55.750;13.202;2023-06-22T12:35:49;26.00;99.90
17039;DHT22;8636;55.750;13.202;2023-06-22T12:38:26;26.00;99.90
17039;DHT22;8636;55.750;13.202;2023-06-22T12:41:01;25.80;99.90
17039;DHT22;8636;55.750;13.202;2023-06-22T12:43:42;26.20;99.90
17039;DHT22;8636;55.750;13.202;2023-06-22T12:46:10;25.70;99.90
17039;DHT22;8636;55.750;13.202;2023-06-22T12:48:38;25.90;99.90
17039;DHT22;8636;55.750;13.202;2023-06-22T12:51:20;25.90;99.90
17039;DHT22;8636;55.750;13.202;2023-06-22T12:53:50;26.00;99.90
17039;DHT22;8636;55.750;13.202;2023-06-22T12:56:24;26.00;99.90
17039;DHT22;8636;55.750;13.202;2023-06-22T12:58:52;26.50;99.90
17039;DHT22;8636;55.750;13.202;2023-06-22T13:01:20;26.40;99.90
17039;DHT22;8636;55.750;13.202;2023-06-22T13:03:55;26.00;99.90
17039;DHT22;8636;55.750;13.202;2023-06-22T13:06:24;26.30;99.90
17039;DHT22;8636;55.750;13.202;2023-06-22T13:08:53;26.20;99.90
17039;DHT22;8636;55.750;13.202;2023-06-22T13:11:30;26.10;99.90
17039;DHT22;8636;55.750;13.202;2023-06-22T13:13:58;25.70;99.90
17039;DHT22;8636;55.750;13.202;2023-06-22T13:16:26;25.70;99.90
17039;DHT22;8636;55.750;13.202;2023-06-22T13:19:00;25.70;99.90
17039;DHT22;8636;55.750;13.202;2023-06-22T13:21:28;25.70;99.90
17039;DHT22;8636;55.750;13.202;2023-06-22T13:23:57;25.40;99.90
17039;DHT22;8636;55.750;13.202;2023-06-22T13:26:32;25.80;99.90
17039;DHT22;8636;55.750;13.202;2023-06-22T13:29:00;26.20;99.90
17039;DHT22;8636;55.750;13.202;2023-06-22T13:31:28;26.40;99.90
17039;DHT22;8636;55.750;13.202;2023-06-22T13:34:03;26.30;99.90
17039;DHT22;8636;55.750;13.202;2023-06-22T13:36:32;26.30;99.90
17039;DHT22;8636;55.750;13.202;2023-06-22T13:39:01;25.80;99.90
17039;DHT22;8636;55.750;13.202;2023-06-22T13:41:42;26.00;99.90
17039;DHT22;8636;55.750;13.202;2023-06-22T13:44:13;25.90;99.90
17039;DHT22;8636;55.750;13.202;2023-06-22T13:46:48;25.60;99.90
17039;DHT22;8636;55.750;13.202;2023-06-22T13:49:16;25.50;99.90
17039;DHT22;8636;55.750;13.202;2023-06-22T13:51:44;25.30;99.90
17039;DHT22;8636;55.750;13.202;2023-06-22T13:54:24;25.20;99.90
17039;DHT22;8636;55.750;13.202;2023-06-22T13:56:56;25.40;99.90
17039;DHT22;8636;55.750;13.202;2023-06-22T13:59:31;25.50;99.90
17039;DHT22;8636;55.750;13.202;2023-06-22T14:01:59;25.50;99.90
17039;DHT22;8636;55.750;13.202;2023-06-22T14:04:27;25.30;99.90
17039;DHT22;8636;55.750;13.202;2023-06-22T14:07:02;25.70;99.90
17039;DHT22;8636;55.750;13.202;2023-06-22T14:09:32;25.80;99.90
17039;DHT22;8636;55.750;13.202;2023-06-22T14:12:03;25.50;99.90
17039;DHT22;8636;55.750;13.202;2023-06-22T14:14:38;25.10;99.90
17039;DHT22;8636;55.750;13.202;2023-06-22T14:17:06;25.10;99.90
17039;DHT22;8636;55.750;13.202;2023-06-22T14:19:34;25.30;99.90
17039;DHT22;8636;55.750;13.202;2023-06-22T14:22:09;25.20;99.90
17039;DHT22;8636;55.750;13.202;2023-06-22T14:24:39;25.60;99.90
17039;DHT22;8636;55.750;13.202;2023-06-22T14:27:06;25.70;99.90
17039;DHT22;8636;55.750;13.202;2023-06-22T14:29:42;26.10;99.90
17039;DHT22;8636;55.750;13.202;2023-06-22T14:32:10;25.90;99.90
17039;DHT22;8636;55.750;13.202;2023-06-22T14:34:38;26.20;99.90
17039;DHT22;8636;55.750;13.202;2023-06-22T14:37:13;26.10;99.90
17039;DHT22;8636;55.750;13.202;2023-06-22T14:39:42;26.40;99.90
17039;DHT22;8636;55.750;13.202;2023-06-22T14:42:10;26.60;99.90
17039;DHT22;8636;55.750;13.202;2023-06-22T14:44:59;26.20;99.90
17039;DHT22;8636;55.750;13.202;2023-06-22T14:47:27;25.80;99.90
17039;DHT22;8636;55.750;13.202;2023-06-22T14:50:01;25.20;99.90
17039;DHT22;8636;55.750;13.202;2023-06-22T14:52:30;24.90;99.90
17039;DHT22;8636;55.750;13.202;2023-06-22T14:54:59;24.60;99.90
17039;DHT22;8636;55.750;13.202;2023-06-22T14:57:34;24.50;99.90
17039;DHT22;8636;55.750;13.202;2023-06-22T15:00:03;24.40;99.90
17039;DHT22;8636;55.750;13.202;2023-06-22T15:02:34;24.30;99.90
17039;DHT22;8636;55.750;13.202;2023-06-22T15:05:09;24.30;99.90
17039;DHT22;8636;55.750;13.202;2023-06-22T15:07:37;24.30;99.90
17039;DHT22;8636;55.750;13.202;2023-06-22T15:10:08;24.60;99.90
17039;DHT22;8636;55.750;13.202;2023-06-22T15:12:43;24.60;99.90
17039;DHT22;8636;55.750;13.202;2023-06-22T15:15:11;24.80;99.90
17039;DHT22;8636;55.750;13.202;2023-06-22T15:17:39;24.60;99.90
17039;DHT22;8636;55.750;13.202;2023-06-22T15:20:14;24.70;99.90
17039;DHT22;8636;55.750;13.202;2023-06-22T15:22:42;24.70;99.90
17039;DHT22;8636;55.750;13.202;2023-06-22T15:25:11;24.70;99.90
17039;DHT22;8636;55.750;13.202;2023-06-22T15:27:46;24.80;99.90
17039;DHT22;8636;55.750;13.202;2023-06-22T15:30:14;24.90;99.90
17039;DHT22;8636;55.750;13.202;2023-06-22T15:32:43;24.90;99.90
17039;DHT22;8636;55.750;13.202;2023-06-22T15:35:18;25.10;99.90
17039;DHT22;8636;55.750;13.202;2023-06-22T15:37:46;24.90;99.90
17039;DHT22;8636;55.750;13.202;2023-06-22T15:40:15;25.00;99.90
17039;DHT22;8636;55.750;13.202;2023-06-22T15:42:56;25.10;99.90
17039;DHT22;8636;55.750;13.202;2023-06-22T15:45:30;25.10;99.90
17039;DHT22;8636;55.750;13.202;2023-06-22T15:48:05;25.20;99.90
17039;DHT22;8636;55.750;13.202;2023-06-22T15:50:34;25.60;99.90
17039;DHT22;8636;55.750;13.202;2023-06-22T15:53:01;25.40;99.90
17039;DHT22;8636;55.750;13.202;2023-06-22T15:55:37;25.20;99.90
17039;DHT22;8636;55.750;13.202;2023-06-22T15:58:06;25.10;99.90